Time;durP1;ratioP1;P1;durP2;ratioP2;P2;SDS_P1;SDS_P2;PMS_P1;PMS_P2;Temp;Humidity;BMP_temperature;BMP_pressure;BME280_temperature;BME280_humidity;BME280_pressure;Samples;Min_cycle;Max_cycle;Signal;HPM_P1;HPM_P2
2023/06/08 00:02:07;;;;;;;13.45;4.90;;;24.40;56.90;;;;;;5033331;28;20029;-56
2023/06/08 00:04:33;;;;;;;10.88;4.82;;;24.40;57.00;;;;;;5031858;28;20033;-55
2023/06/08 00:07:08;;;;;;;21.02;4.93;;;24.30;57.10;;;;;;5045805;28;20056;-56
2023/06/08 00:09:35;;;;;;;9.52;4.90;;;24.30;57.20;;;;;;5053229;28;20054;-56
2023/06/08 00:12:01;;;;;;;12.90;4.53;;;24.20;57.20;;;;;;5030138;28;20026;-56
2023/06/08 00:14:26;;;;;;;10.15;4.45;;;24.20;57.30;;;;;;5042302;28;20044;-57
2023/06/08 00:16:52;;;;;;;10.02;4.93;;;24.20;57.30;;;;;;5027674;28;20040;-56
2023/06/08 00:19:18;;;;;;;6.03;4.60;;;24.20;57.30;;;;;;5026161;28;20041;-56
2023/06/08 00:21:44;;;;;;;9.10;4.68;;;24.20;57.40;;;;;;5045340;28;20053;-56
2023/06/08 00:24:10;;;;;;;11.38;4.90;;;24.10;57.50;;;;;;5045669;28;20037;-55
2023/06/08 00:26:35;;;;;;;9.70;4.70;;;24.10;57.50;;;;;;5026522;28;20030;-55
2023/06/08 00:29:01;;;;;;;11.85;4.68;;;24.10;57.60;;;;;;5039731;28;20043;-56
2023/06/08 00:31:27;;;;;;;13.57;4.13;;;24.10;57.70;;;;;;5067521;28;20033;-56
2023/06/08 00:33:52;;;;;;;12.35;4.60;;;24.00;57.70;;;;;;5045595;28;20038;-56
2023/06/08 00:36:19;;;;;;;10.73;4.43;;;24.00;57.80;;;;;;5042858;28;20080;-56
2023/06/08 00:38:44;;;;;;;11.63;4.28;;;24.00;57.80;;;;;;5027029;28;20026;-56
2023/06/08 00:41:10;;;;;;;6.70;4.30;;;23.90;57.90;;;;;;5025466;28;20099;-56
2023/06/08 00:43:35;;;;;;;6.05;4.18;;;23.90;58.00;;;;;;5042035;28;20026;-56
2023/06/08 00:46:02;;;;;;;9.38;4.35;;;23.90;58.00;;;;;;5050047;28;20033;-56
2023/06/08 00:48:28;;;;;;;10.75;4.63;;;23.80;58.10;;;;;;5065369;28;20132;-56
2023/06/08 00:50:54;;;;;;;9.98;4.15;;;23.80;58.80;;;;;;5050456;28;20030;-56
2023/06/08 00:53:19;;;;;;;6.97;4.30;;;23.80;58.30;;;;;;5041910;28;20052;-56
2023/06/08 00:55:46;;;;;;;7.65;4.18;;;23.70;58.40;;;;;;5025499;28;20109;-56
2023/06/08 00:58:13;;;;;;;8.18;4.85;;;23.70;58.60;;;;;;5038437;28;20088;-56
2023/06/08 01:00:39;;;;;;;8.07;4.38;;;23.70;58.60;;;;;;5037746;28;20026;-56
2023/06/08 01:03:06;;;;;;;8.80;3.92;;;23.60;58.60;;;;;;5053818;28;20039;-56
2023/06/08 01:05:32;;;;;;;11.90;4.22;;;23.60;58.60;;;;;;5024160;28;20068;-57
2023/06/08 01:08:08;;;;;;;10.07;4.30;;;23.60;58.80;;;;;;5031278;28;20026;-56
2023/06/08 01:10:39;;;;;;;10.48;4.53;;;23.50;58.80;;;;;;5054348;28;20045;-56
2023/06/08 01:13:36;;;;;;;8.40;4.50;;;23.50;59.00;;;;;;5037712;28;20033;-56
2023/06/08 01:16:02;;;;;;;6.68;4.15;;;23.50;59.10;;;;;;5030732;28;20054;-56
2023/06/08 01:18:32;;;;;;;7.05;4.07;;;23.40;59.20;;;;;;5041800;28;20502;-56
2023/06/08 01:21:33;;;;;;;10.20;4.20;;;23.40;59.20;;;;;;5028015;28;20037;-56
2023/06/08 01:24:12;;;;;;;7.97;4.70;;;23.40;59.20;;;;;;5046060;28;20422;-56
2023/06/08 01:26:49;;;;;;;10.52;4.53;;;23.40;59.20;;;;;;5026711;28;20033;-56
2023/06/08 01:29:15;;;;;;;9.80;4.05;;;23.40;59.30;;;;;;5044661;28;20026;-56
2023/06/08 01:31:41;;;;;;;5.22;3.60;;;23.40;59.40;;;;;;5024931;28;20045;-56
2023/06/08 01:34:06;;;;;;;10.10;4.03;;;23.30;59.40;;;;;;5038260;28;20033;-56
2023/06/08 01:36:41;;;;;;;9.48;4.07;;;23.30;59.60;;;;;;5026210;28;20112;-56
2023/06/08 01:39:13;;;;;;;12.77;4.30;;;23.20;59.60;;;;;;5045270;28;20029;-56
2023/06/08 01:41:41;;;;;;;7.20;4.60;;;23.20;59.70;;;;;;5034470;28;20045;-56
2023/06/08 01:44:08;;;;;;;5.47;3.75;;;23.10;59.80;;;;;;5036901;28;20033;-56
2023/06/08 01:46:33;;;;;;;6.35;4.10;;;23.10;60.00;;;;;;5027771;28;20056;-56
2023/06/08 01:49:01;;;;;;;6.45;3.95;;;23.10;60.00;;;;;;5039675;28;20049;-56
2023/06/08 01:51:26;;;;;;;5.30;3.70;;;23.00;60.00;;;;;;5048894;28;20060;-56
2023/06/08 01:54:02;;;;;;;9.43;4.35;;;23.00;60.20;;;;;;5044230;28;20052;-56
2023/06/08 01:56:30;;;;;;;6.40;4.40;;;23.00;60.20;;;;;;5042793;28;20025;-56
2023/06/08 01:58:55;;;;;;;5.72;3.97;;;23.00;60.40;;;;;;5042509;28;20060;-56
2023/06/08 02:01:21;;;;;;;5.32;3.97;;;22.90;60.30;;;;;;5039231;28;20394;-56
2023/06/08 02:03:46;;;;;;;6.40;3.90;;;22.90;60.50;;;;;;5024409;28;20045;-56
2023/06/08 02:06:12;;;;;;;6.28;4.47;;;22.90;60.60;;;;;;5024191;28;20096;-56
2023/06/08 02:08:38;;;;;;;8.38;4.65;;;22.90;60.70;;;;;;5058728;28;20093;-56
2023/06/08 02:11:04;;;;;;;7.88;4.38;;;22.80;60.60;;;;;;5029466;28;20037;-56
2023/06/08 02:13:30;;;;;;;9.30;4.57;;;22.80;60.60;;;;;;5023492;28;20026;-56
2023/06/08 02:15:57;;;;;;;11.25;4.45;;;22.80;60.70;;;;;;5036791;28;20025;-56
2023/06/08 02:18:25;;;;;;;7.32;5.28;;;22.80;60.70;;;;;;5026766;28;20040;-56
2023/06/08 02:20:50;;;;;;;9.10;5.05;;;22.80;60.80;;;;;;5039585;28;20022;-56
2023/06/08 02:23:16;;;;;;;5.50;5.00;;;22.70;60.80;;;;;;5055329;28;20036;-56
2023/06/08 02:25:41;;;;;;;9.02;5.13;;;22.70;61.00;;;;;;5023969;28;20124;-56
2023/06/08 02:28:07;;;;;;;6.95;5.35;;;22.70;61.00;;;;;;5039931;28;20486;-56
2023/06/08 02:30:32;;;;;;;8.35;5.20;;;22.70;61.00;;;;;;5025208;28;20090;-56
2023/06/08 02:32:59;;;;;;;6.80;5.75;;;22.60;61.10;;;;;;5039845;28;20030;-56
2023/06/08 02:35:25;;;;;;;7.70;5.30;;;22.70;61.20;;;;;;5042410;28;20025;-56
2023/06/08 02:37:50;;;;;;;8.85;5.28;;;22.60;61.20;;;;;;5032277;28;20052;-56
2023/06/08 02:40:16;;;;;;;6.13;4.80;;;22.60;61.40;;;;;;5035199;28;20053;-56
2023/06/08 02:42:41;;;;;;;6.57;5.47;;;22.60;61.50;;;;;;5030333;28;20057;-55
2023/06/08 02:45:07;;;;;;;6.95;4.90;;;22.60;61.60;;;;;;5044053;28;20060;-56
2023/06/08 02:47:33;;;;;;;6.63;4.75;;;22.50;61.60;;;;;;5043511;28;20024;-56
2023/06/08 02:49:58;;;;;;;10.98;5.55;;;22.50;61.80;;;;;;5043595;28;20080;-56
2023/06/08 02:52:24;;;;;;;14.13;5.25;;;22.50;61.80;;;;;;5044067;28;20033;-56
2023/06/08 02:54:50;;;;;;;7.97;5.10;;;22.50;61.90;;;;;;5028653;28;20176;-56
2023/06/08 02:57:16;;;;;;;5.85;4.93;;;22.50;61.90;;;;;;5058274;28;20129;-56
2023/06/08 02:59:41;;;;;;;9.73;4.88;;;22.50;62.00;;;;;;5040892;28;20442;-56
2023/06/08 03:02:07;;;;;;;14.85;5.43;;;22.50;62.10;;;;;;5024605;28;20113;-56
2023/06/08 03:04:33;;;;;;;6.60;5.00;;;22.50;62.10;;;;;;5025530;28;20030;-56
2023/06/08 03:06:59;;;;;;;9.05;5.10;;;22.50;62.20;;;;;;5034280;28;20030;-53
2023/06/08 03:09:25;;;;;;;10.55;4.95;;;22.40;62.20;;;;;;5034941;28;20358;-53
2023/06/08 03:11:51;;;;;;;7.32;5.13;;;22.40;62.20;;;;;;5028322;28;20030;-54
2023/06/08 03:14:18;;;;;;;6.63;5.47;;;22.40;62.20;;;;;;5055821;28;20061;-53
2023/06/08 03:16:46;;;;;;;7.68;5.32;;;22.40;62.30;;;;;;5043049;28;20029;-53
2023/06/08 03:19:13;;;;;;;9.77;5.97;;;22.40;62.40;;;;;;5040294;28;20030;-54
2023/06/08 03:21:41;;;;;;;8.07;5.40;;;22.40;62.50;;;;;;5039929;28;20034;-53
2023/06/08 03:24:10;;;;;;;6.65;5.53;;;22.40;62.60;;;;;;5051767;28;20026;-53
2023/06/08 03:26:36;;;;;;;9.57;5.65;;;22.30;62.70;;;;;;5024578;28;20076;-53
2023/06/08 03:29:01;;;;;;;7.95;5.55;;;22.40;62.70;;;;;;5036171;28;20397;-53
2023/06/08 03:31:29;;;;;;;9.07;5.57;;;22.30;62.70;;;;;;5030442;28;20085;-53
2023/06/08 03:33:55;;;;;;;6.45;5.78;;;22.30;62.80;;;;;;5039322;28;20025;-53
2023/06/08 03:36:21;;;;;;;7.15;5.60;;;22.30;62.90;;;;;;5046506;28;20029;-54
2023/06/08 03:38:46;;;;;;;9.00;6.00;;;22.30;63.70;;;;;;5029124;28;20076;-53
2023/06/08 03:41:13;;;;;;;9.10;5.55;;;22.20;62.90;;;;;;5039500;28;20033;-53
2023/06/08 03:43:38;;;;;;;7.70;5.82;;;22.20;63.10;;;;;;5033405;28;20175;-53
2023/06/08 03:46:04;;;;;;;90.78;14.75;;;22.20;63.10;;;;;;5032515;28;20083;-53
2023/06/08 03:48:30;;;;;;;44.22;10.32;;;22.20;63.10;;;;;;5027766;28;20520;-53
2023/06/08 03:50:55;;;;;;;26.50;7.68;;;22.20;63.20;;;;;;5026415;28;20037;-53
2023/06/08 03:53:21;;;;;;;23.45;7.30;;;22.20;63.20;;;;;;5026430;28;20026;-53
2023/06/08 03:55:46;;;;;;;35.50;9.63;;;22.10;63.20;;;;;;5035809;28;20338;-53
2023/06/08 03:58:12;;;;;;;24.58;8.93;;;22.10;63.30;;;;;;5034320;28;20623;-53
2023/06/08 04:00:38;;;;;;;24.45;9.80;;;22.10;63.40;;;;;;5033450;28;20017;-53
2023/06/08 04:03:04;;;;;;;26.33;9.73;;;22.10;63.50;;;;;;5026174;28;20032;-53
2023/06/08 04:05:30;;;;;;;26.33;9.30;;;22.10;63.50;;;;;;5048544;28;20104;-53
2023/06/08 04:07:56;;;;;;;31.25;9.85;;;22.10;63.60;;;;;;5042563;28;20018;-53
2023/06/08 04:10:21;;;;;;;27.55;8.93;;;22.10;63.70;;;;;;5035699;28;20029;-53
2023/06/08 04:12:47;;;;;;;27.65;9.88;;;22.10;63.70;;;;;;5033441;28;20026;-53
2023/06/08 04:15:12;;;;;;;29.73;9.85;;;22.10;63.80;;;;;;5041464;28;20084;-53
2023/06/08 04:17:41;;;;;;;27.77;9.98;;;22.00;63.70;;;;;;5046645;28;20041;-53
2023/06/08 04:20:09;;;;;;;23.67;9.32;;;22.00;63.60;;;;;;5046287;28;20083;-53
2023/06/08 04:22:35;;;;;;;24.17;8.85;;;21.90;63.60;;;;;;5035421;28;20040;-53
2023/06/08 04:25:01;;;;;;;32.45;9.50;;;21.90;63.70;;;;;;5026333;28;20030;-53
2023/06/08 04:27:26;;;;;;;24.70;8.85;;;21.90;63.80;;;;;;5043821;28;20064;-53
2023/06/08 04:29:52;;;;;;;23.38;8.98;;;21.90;64.00;;;;;;5041227;28;20053;-53
2023/06/08 04:32:18;;;;;;;27.52;8.75;;;21.80;64.00;;;;;;5027092;28;20036;-53
2023/06/08 04:34:43;;;;;;;24.85;8.52;;;21.80;64.80;;;;;;5025517;28;20030;-53
2023/06/08 04:37:09;;;;;;;23.08;8.63;;;21.80;64.20;;;;;;5041740;28;20044;-54
2023/06/08 04:39:35;;;;;;;18.92;8.15;;;21.80;64.40;;;;;;5034174;28;20044;-54
2023/06/08 04:42:02;;;;;;;20.63;8.00;;;21.70;64.50;;;;;;5038802;28;20076;-53
2023/06/08 04:44:31;;;;;;;18.65;8.07;;;21.70;64.50;;;;;;5027568;28;20092;-53
2023/06/08 04:46:57;;;;;;;18.60;7.05;;;21.70;64.60;;;;;;5034271;28;20034;-53
2023/06/08 04:49:31;;;;;;;18.25;7.20;;;21.70;64.60;;;;;;5042128;28;20133;-53
2023/06/08 04:51:58;;;;;;;21.13;7.13;;;21.70;64.80;;;;;;5045386;28;20036;-53
2023/06/08 04:54:25;;;;;;;16.67;6.45;;;21.70;65.00;;;;;;5032625;28;20212;-53
2023/06/08 04:56:53;;;;;;;15.32;7.20;;;21.70;65.20;;;;;;5009003;28;20057;-53
2023/06/08 04:59:22;;;;;;;18.83;6.97;;;21.60;65.10;;;;;;5039079;28;20060;-53
2023/06/08 05:01:47;;;;;;;13.80;6.85;;;21.60;65.30;;;;;;5031696;28;20100;-53
2023/06/08 05:04:13;;;;;;;11.60;5.63;;;21.60;65.30;;;;;;5043667;28;20060;-53
2023/06/08 05:06:39;;;;;;;15.95;6.65;;;21.60;65.50;;;;;;5030860;28;20022;-54
2023/06/08 05:09:05;;;;;;;9.32;6.07;;;21.60;65.50;;;;;;5032041;28;20051;-54
2023/06/08 05:11:30;;;;;;;14.77;6.05;;;21.60;65.60;;;;;;5034032;28;20025;-53
2023/06/08 05:13:56;;;;;;;14.55;6.10;;;21.50;65.80;;;;;;5027843;28;20171;-56
2023/06/08 05:16:22;;;;;;;14.07;6.25;;;21.50;65.90;;;;;;5038811;28;20037;-56
2023/06/08 05:18:47;;;;;;;14.30;6.03;;;21.50;66.10;;;;;;5027801;28;20029;-56
2023/06/08 05:21:13;;;;;;;10.57;5.57;;;21.50;66.20;;;;;;5015889;28;20044;-55
2023/06/08 05:23:39;;;;;;;10.95;5.60;;;21.50;66.30;;;;;;5025374;28;20029;-56
2023/06/08 05:26:05;;;;;;;13.13;5.68;;;21.50;66.40;;;;;;5040298;28;20344;-56
2023/06/08 05:28:30;;;;;;;9.05;5.38;;;21.40;66.50;;;;;;5027804;28;20097;-56
2023/06/08 05:30:56;;;;;;;10.07;5.50;;;21.40;66.60;;;;;;5024909;28;20038;-56
2023/06/08 05:33:21;;;;;;;11.65;5.55;;;21.40;66.60;;;;;;5026255;28;20029;-56
2023/06/08 05:35:47;;;;;;;16.65;5.75;;;21.40;66.60;;;;;;5035573;28;20021;-56
2023/06/08 05:38:12;;;;;;;11.40;5.60;;;21.40;66.60;;;;;;5045710;28;20029;-56
2023/06/08 05:40:39;;;;;;;12.30;5.68;;;21.40;66.60;;;;;;5011425;28;20022;-56
2023/06/08 05:43:05;;;;;;;9.95;5.10;;;21.40;66.80;;;;;;5024102;28;20033;-55
2023/06/08 05:45:30;;;;;;;15.38;5.57;;;21.30;67.00;;;;;;5031707;28;20021;-55
2023/06/08 05:47:56;;;;;;;12.43;5.40;;;21.30;67.20;;;;;;5044149;28;20354;-56
2023/06/08 05:50:21;;;;;;;11.40;5.43;;;21.30;67.80;;;;;;5037808;28;20026;-56
2023/06/08 05:52:47;;;;;;;11.65;5.07;;;21.30;67.90;;;;;;5029634;28;20105;-56
2023/06/08 05:55:12;;;;;;;9.10;4.80;;;21.20;68.10;;;;;;5043817;28;20371;-56
2023/06/08 05:57:38;;;;;;;7.63;5.07;;;21.20;68.10;;;;;;5052511;28;20498;-56
2023/06/08 06:00:09;;;;;;;20.20;5.68;;;21.10;68.40;;;;;;5028025;28;20030;-55
2023/06/08 06:02:35;;;;;;;8.95;5.55;;;21.10;68.70;;;;;;5024521;28;20153;-56
2023/06/08 06:05:00;;;;;;;9.32;5.60;;;21.00;68.90;;;;;;5027049;28;20033;-56
2023/06/08 06:07:26;;;;;;;9.30;5.32;;;21.00;69.30;;;;;;5029808;28;20099;-55
2023/06/08 06:09:52;;;;;;;10.25;5.65;;;21.00;69.60;;;;;;5028646;28;20108;-56
2023/06/08 06:12:17;;;;;;;10.88;5.55;;;21.00;69.80;;;;;;5032207;28;20038;-56
2023/06/08 06:14:43;;;;;;;13.18;5.80;;;21.00;70.00;;;;;;5037668;28;20057;-56
2023/06/08 06:17:08;;;;;;;12.57;5.72;;;21.00;70.00;;;;;;5019625;28;20045;-55
2023/06/08 06:19:36;;;;;;;12.63;5.75;;;20.90;70.30;;;;;;5029405;28;20467;-56
2023/06/08 06:22:06;;;;;;;8.68;5.50;;;20.90;70.60;;;;;;5029723;28;20326;-56
2023/06/08 06:24:31;;;;;;;15.05;5.85;;;20.90;70.70;;;;;;5038850;28;20029;-55
2023/06/08 06:26:58;;;;;;;14.48;5.30;;;20.90;70.60;;;;;;5038468;28;20071;-56
2023/06/08 06:29:24;;;;;;;7.85;5.20;;;20.90;70.60;;;;;;5040377;28;20319;-56
2023/06/08 06:31:50;;;;;;;9.43;4.55;;;20.90;70.80;;;;;;5023272;28;20030;-56
2023/06/08 06:34:15;;;;;;;10.93;4.78;;;20.90;70.90;;;;;;5023567;28;20034;-56
2023/06/08 06:36:41;;;;;;;9.93;4.93;;;20.90;71.00;;;;;;5023696;28;20030;-56
2023/06/08 06:39:06;;;;;;;10.60;5.30;;;20.90;71.00;;;;;;5045266;28;20033;-56
2023/06/08 06:41:32;;;;;;;9.52;5.40;;;20.90;71.10;;;;;;5024153;28;20030;-56
2023/06/08 06:43:58;;;;;;;6.18;4.72;;;20.90;71.20;;;;;;5039709;28;20036;-56
2023/06/08 06:46:25;;;;;;;12.85;5.80;;;20.90;71.40;;;;;;5031608;28;20022;-56
2023/06/08 06:48:51;;;;;;;16.08;5.45;;;20.90;71.50;;;;;;5023197;28;20030;-56
2023/06/08 06:51:16;;;;;;;12.63;4.93;;;21.00;71.70;;;;;;5021901;28;20439;-55
2023/06/08 06:53:42;;;;;;;14.18;5.07;;;21.00;71.50;;;;;;5022531;28;20034;-56
2023/06/08 06:56:07;;;;;;;14.93;6.22;;;21.00;71.50;;;;;;5031789;28;20041;-56
2023/06/08 06:58:33;;;;;;;26.50;6.68;;;21.00;71.90;;;;;;5006240;28;20446;-56
2023/06/08 07:01:01;;;;;;;24.02;6.05;;;21.00;71.80;;;;;;5029297;28;20681;-56
2023/06/08 07:03:27;;;;;;;13.00;5.93;;;21.00;71.80;;;;;;5033207;28;20026;-56
2023/06/08 07:05:58;;;;;;;21.20;6.40;;;21.00;71.60;;;;;;5045235;28;20091;-56
2023/06/08 07:08:29;;;;;;;26.98;6.50;;;21.00;71.60;;;;;;5038374;28;20054;-56
2023/06/08 07:10:55;;;;;;;22.77;5.93;;;21.10;72.40;;;;;;5051461;28;20029;-56
2023/06/08 07:13:20;;;;;;;20.35;6.00;;;21.10;71.50;;;;;;5042805;28;20130;-56
2023/06/08 07:15:46;;;;;;;15.60;5.95;;;21.10;71.60;;;;;;5043909;28;20105;-56
2023/06/08 07:18:11;;;;;;;30.40;6.80;;;21.10;71.60;;;;;;5044492;28;20032;-56
2023/06/08 07:20:37;;;;;;;30.77;8.02;;;21.10;71.50;;;;;;5044244;28;20097;-56
2023/06/08 07:23:03;;;;;;;26.60;6.57;;;21.10;71.20;;;;;;5042979;28;20041;-56
2023/06/08 07:25:28;;;;;;;22.38;6.45;;;21.20;70.90;;;;;;5044368;28;20037;-56
2023/06/08 07:27:54;;;;;;;25.13;6.00;;;21.20;70.90;;;;;;5043228;28;20057;-56
2023/06/08 07:30:19;;;;;;;18.08;5.55;;;21.20;71.30;;;;;;5043460;28;20036;-56
2023/06/08 07:32:45;;;;;;;23.58;6.53;;;21.20;70.90;;;;;;5042509;28;20084;-55
2023/06/08 07:35:11;;;;;;;35.00;7.78;;;21.20;70.90;;;;;;5026627;28;20033;-56
2023/06/08 07:37:36;;;;;;;26.25;7.20;;;21.30;70.90;;;;;;5043695;28;20087;-56
2023/06/08 07:40:07;;;;;;;50.80;8.88;;;21.30;70.80;;;;;;5043365;28;20052;-56
2023/06/08 07:42:32;;;;;;;32.80;7.47;;;21.30;71.10;;;;;;5043656;28;20041;-56
2023/06/08 07:44:58;;;;;;;34.60;7.75;;;21.30;70.70;;;;;;5043633;28;20481;-56
2023/06/08 07:47:24;;;;;;;27.83;7.03;;;21.30;70.70;;;;;;5042971;28;20025;-56
2023/06/08 07:49:49;;;;;;;31.67;7.10;;;21.30;70.50;;;;;;5018040;28;20087;-56
2023/06/08 07:52:15;;;;;;;34.55;7.78;;;21.40;71.20;;;;;;5043715;28;20433;-56
2023/06/08 07:54:40;;;;;;;22.92;6.65;;;21.40;70.50;;;;;;5023432;28;20567;-56
2023/06/08 07:57:06;;;;;;;22.23;6.90;;;21.40;70.20;;;;;;5035859;28;20097;-56
2023/06/08 07:59:32;;;;;;;28.60;7.00;;;21.40;70.20;;;;;;5041290;28;20088;-56
2023/06/08 08:01:57;;;;;;;23.65;7.03;;;21.40;70.20;;;;;;5037029;28;20041;-56
2023/06/08 08:04:23;;;;;;;26.45;7.40;;;21.40;70.20;;;;;;5041797;28;20083;-56
2023/06/08 08:06:48;;;;;;;34.03;7.03;;;21.40;70.40;;;;;;5037398;28;20049;-56
2023/06/08 08:09:14;;;;;;;26.27;5.95;;;21.40;70.30;;;;;;5040037;28;20123;-56
2023/06/08 08:11:40;;;;;;;40.92;8.27;;;21.50;70.20;;;;;;5038855;28;20061;-56
2023/06/08 08:14:09;;;;;;;27.63;7.40;;;21.50;70.10;;;;;;5033911;28;20056;-56
2023/06/08 08:16:36;;;;;;;42.00;7.43;;;21.50;70.00;;;;;;5041269;28;20030;-56
2023/06/08 08:19:02;;;;;;;37.08;7.88;;;21.50;70.00;;;;;;5036835;28;20085;-56
2023/06/08 08:21:27;;;;;;;38.97;8.35;;;21.50;70.00;;;;;;5036910;28;20419;-56
2023/06/08 08:23:53;;;;;;;35.97;8.45;;;21.60;69.70;;;;;;5040049;28;20077;-56
2023/06/08 08:26:18;;;;;;;38.47;8.27;;;21.60;69.80;;;;;;5036352;28;20034;-56
2023/06/08 08:28:46;;;;;;;39.08;7.63;;;21.60;69.80;;;;;;5042161;28;20085;-56
2023/06/08 08:31:11;;;;;;;34.78;7.75;;;21.60;69.90;;;;;;5032044;28;20449;-54
2023/06/08 08:33:37;;;;;;;23.25;6.88;;;21.60;69.60;;;;;;5039382;28;20041;-56
2023/06/08 08:36:03;;;;;;;39.70;8.75;;;21.60;69.70;;;;;;5025375;28;20534;-56
2023/06/08 08:38:29;;;;;;;42.90;7.78;;;21.60;70.00;;;;;;5038956;28;20463;-56
2023/06/08 08:41:01;;;;;;;40.75;8.10;;;21.70;69.80;;;;;;5046256;28;20052;-56
2023/06/08 08:43:50;;;;;;;27.75;7.15;;;21.70;69.90;;;;;;5030388;28;20030;-56
2023/06/08 08:46:16;;;;;;;31.98;7.60;;;21.70;69.70;;;;;;5021484;28;20495;-55
2023/06/08 08:48:44;;;;;;;26.92;7.30;;;21.70;69.70;;;;;;5027445;28;20026;-56
2023/06/08 08:51:18;;;;;;;31.38;7.32;;;21.70;69.70;;;;;;5036283;28;20490;-56
2023/06/08 08:53:45;;;;;;;48.22;9.27;;;21.80;69.50;;;;;;5026113;28;20049;-56
2023/06/08 08:56:12;;;;;;;45.30;7.55;;;21.80;69.60;;;;;;5026297;28;20026;-55
2023/06/08 08:58:38;;;;;;;52.92;9.32;;;21.80;69.70;;;;;;5023673;28;20036;-56
2023/06/08 09:01:05;;;;;;;37.63;8.05;;;21.80;69.70;;;;;;5032033;28;20018;-56
2023/06/08 09:03:30;;;;;;;30.42;7.75;;;21.90;69.50;;;;;;5027546;28;20378;-56
2023/06/08 09:05:56;;;;;;;34.97;7.57;;;21.90;69.50;;;;;;5025517;28;20085;-56
2023/06/08 09:08:25;;;;;;;58.20;11.02;;;21.90;69.50;;;;;;5024902;28;20022;-56
2023/06/08 09:11:03;;;;;;;44.75;8.73;;;22.00;69.50;;;;;;5025411;28;20041;-56
2023/06/08 09:13:32;;;;;;;40.72;8.32;;;22.00;69.40;;;;;;5040997;28;20065;-56
2023/06/08 09:16:17;;;;;;;50.53;10.38;;;22.00;69.20;;;;;;5034729;28;20022;-56
2023/06/08 09:18:46;;;;;;;31.88;8.85;;;22.10;69.10;;;;;;5028270;28;20064;-56
2023/06/08 09:21:22;;;;;;;44.75;8.38;;;22.10;69.10;;;;;;5034620;28;20042;-57
2023/06/08 09:24:03;;;;;;;56.78;10.40;;;22.10;69.00;;;;;;5024503;28;20101;-56
2023/06/08 09:26:32;;;;;;;43.33;7.85;;;22.10;69.10;;;;;;5031799;28;20040;-56
2023/06/08 09:29:00;;;;;;;66.25;10.23;;;22.20;68.90;;;;;;5041182;28;20037;-56
2023/06/08 09:31:29;;;;;;;40.55;8.95;;;22.20;68.80;;;;;;5043398;28;20029;-56
2023/06/08 09:34:25;;;;;;;58.33;11.20;;;22.20;68.80;;;;;;5041950;28;20033;-56
2023/06/08 09:36:52;;;;;;;32.70;7.78;;;22.20;68.60;;;;;;5009427;28;20530;-56
2023/06/08 09:39:17;;;;;;;58.83;11.25;;;22.30;68.60;;;;;;5022239;28;20044;-56
2023/06/08 09:41:56;;;;;;;27.00;7.82;;;22.30;68.70;;;;;;5040657;28;20049;-56
2023/06/08 09:44:22;;;;;;;21.17;6.00;;;22.40;68.70;;;;;;5037942;28;20064;-56
2023/06/08 09:46:48;;;;;;;41.30;7.90;;;22.40;68.30;;;;;;5034464;28;20017;-56
2023/06/08 09:49:14;;;;;;;50.85;8.45;;;22.40;68.20;;;;;;5050382;28;20073;-56
2023/06/08 09:51:45;;;;;;;21.95;6.50;;;22.50;68.10;;;;;;5052369;28;20052;-56
2023/06/08 09:54:10;;;;;;;24.13;6.75;;;22.50;68.00;;;;;;5036488;28;20034;-56
2023/06/08 09:56:38;;;;;;;16.20;5.88;;;22.50;67.80;;;;;;5043782;28;20033;-56
2023/06/08 09:59:07;;;;;;;42.83;8.45;;;22.60;67.70;;;;;;5009271;28;20029;-56
2023/06/08 10:01:40;;;;;;;40.85;8.25;;;22.60;67.60;;;;;;5036454;28;20110;-56
2023/06/08 10:04:32;;;;;;;47.47;8.25;;;22.60;67.40;;;;;;5046140;28;20033;-56
2023/06/08 10:07:01;;;;;;;36.92;7.78;;;22.70;67.30;;;;;;5040447;28;20088;-56
2023/06/08 10:09:28;;;;;;;47.05;7.40;;;22.70;66.90;;;;;;5044742;28;20018;-56
2023/06/08 10:11:55;;;;;;;55.55;9.15;;;22.80;66.50;;;;;;5028278;28;20029;-56
2023/06/08 10:14:22;;;;;;;45.17;9.27;;;22.80;66.00;;;;;;5038954;28;20539;-56
2023/06/08 10:16:47;;;;;;;49.63;10.35;;;22.90;65.60;;;;;;5040065;28;20033;-56
2023/06/08 10:19:13;;;;;;;68.80;9.50;;;22.90;65.40;;;;;;5011668;28;20505;-56
2023/06/08 10:21:38;;;;;;;68.10;11.05;;;23.00;65.00;;;;;;5035221;28;20427;-57
2023/06/08 10:24:04;;;;;;;52.38;8.38;;;23.00;64.50;;;;;;5026364;28;20038;-56
2023/06/08 10:26:30;;;;;;;56.17;9.18;;;23.00;64.00;;;;;;5026717;28;20026;-56
2023/06/08 10:29:10;;;;;;;33.17;8.50;;;23.10;63.90;;;;;;5039555;28;20510;-56
2023/06/08 10:31:38;;;;;;;43.22;7.50;;;23.20;63.90;;;;;;5034859;28;20058;-60
2023/06/08 10:34:11;;;;;;;52.60;9.70;;;23.20;63.30;;;;;;5030296;28;20088;-60
2023/06/08 10:36:39;;;;;;;34.70;7.95;;;23.20;62.90;;;;;;5034436;28;20138;-60
2023/06/08 10:39:07;;;;;;;34.40;7.90;;;23.30;63.20;;;;;;5026323;28;20591;-60
2023/06/08 10:41:39;;;;;;;35.40;7.20;;;23.30;62.70;;;;;;5031094;28;20104;-61
2023/06/08 10:44:04;;;;;;;29.42;6.65;;;23.40;62.90;;;;;;5040571;28;20064;-60
2023/06/08 10:46:42;;;;;;;36.05;6.82;;;23.40;62.60;;;;;;5037317;28;20037;-60
2023/06/08 10:49:08;;;;;;;26.92;6.80;;;23.50;62.40;;;;;;5032660;28;20061;-60
2023/06/08 10:51:45;;;;;;;25.27;7.25;;;23.50;62.20;;;;;;5036714;28;20033;-60
2023/06/08 10:54:24;;;;;;;19.13;6.00;;;23.60;62.00;;;;;;5039814;28;20037;-60
2023/06/08 10:56:52;;;;;;;42.90;7.20;;;23.70;61.70;;;;;;5019598;28;20041;-58
2023/06/08 10:59:22;;;;;;;29.10;6.53;;;23.70;61.50;;;;;;5038587;28;20040;-61
2023/06/08 11:01:48;;;;;;;20.52;6.00;;;23.80;61.50;;;;;;5026064;28;20025;-60
2023/06/08 11:04:13;;;;;;;31.67;5.43;;;23.90;61.50;;;;;;5036336;28;20052;-60
2023/06/08 11:06:40;;;;;;;38.17;6.95;;;24.00;61.40;;;;;;5024406;28;20056;-60
2023/06/08 11:09:06;;;;;;;28.60;5.80;;;24.10;61.30;;;;;;5036423;28;20030;-61
2023/06/08 11:11:31;;;;;;;38.50;6.82;;;24.10;61.10;;;;;;5037252;28;20026;-60
2023/06/08 11:13:57;;;;;;;31.27;6.40;;;24.20;60.90;;;;;;5030750;28;20110;-60
2023/06/08 11:16:22;;;;;;;29.38;6.80;;;24.30;60.60;;;;;;5034646;28;20025;-61
2023/06/08 11:18:48;;;;;;;22.38;5.95;;;24.40;60.30;;;;;;5032092;28;20049;-60
2023/06/08 11:21:13;;;;;;;24.00;5.68;;;24.50;60.60;;;;;;5035913;28;20033;-60
2023/06/08 11:23:39;;;;;;;27.65;6.00;;;24.60;59.70;;;;;;5031989;28;20061;-60
2023/06/08 11:26:04;;;;;;;14.80;5.13;;;24.70;59.90;;;;;;5016649;28;20338;-60
2023/06/08 11:28:30;;;;;;;24.38;5.35;;;24.80;59.50;;;;;;5035053;28;20056;-60
2023/06/08 11:30:58;;;;;;;19.80;5.85;;;24.80;59.40;;;;;;5028127;28;20096;-60
2023/06/08 11:33:25;;;;;;;17.52;4.88;;;24.90;59.30;;;;;;5030204;28;20030;-60
2023/06/08 11:35:51;;;;;;;14.48;4.88;;;25.00;59.20;;;;;;5030534;28;20059;-60
2023/06/08 11:38:16;;;;;;;18.73;4.70;;;25.10;59.30;;;;;;5012571;28;20542;-60
2023/06/08 11:40:42;;;;;;;15.38;5.18;;;25.20;58.90;;;;;;5028545;28;20041;-60
2023/06/08 11:43:12;;;;;;;11.10;4.20;;;25.20;58.50;;;;;;5043497;28;20036;-60
2023/06/08 11:45:39;;;;;;;11.18;4.63;;;25.30;58.00;;;;;;5034065;28;20061;-60
2023/06/08 11:48:05;;;;;;;9.10;3.78;;;25.40;57.60;;;;;;5033312;28;21228;-60
2023/06/08 11:50:30;;;;;;;34.80;5.28;;;25.40;57.50;;;;;;5030793;28;20308;-60
2023/06/08 11:52:57;;;;;;;6.57;4.13;;;25.50;56.70;;;;;;5033280;28;20068;-60
2023/06/08 11:55:25;;;;;;;6.60;4.38;;;25.60;56.20;;;;;;5023143;28;20044;-60
2023/06/08 11:57:54;;;;;;;22.73;4.80;;;25.60;56.00;;;;;;5032094;28;20041;-60
2023/06/08 12:00:27;;;;;;;10.95;4.40;;;25.60;56.50;;;;;;5047626;28;20072;-60
2023/06/08 12:02:53;;;;;;;22.70;4.32;;;25.70;55.70;;;;;;5035204;28;20026;-60
2023/06/08 12:05:22;;;;;;;9.68;3.97;;;25.80;55.50;;;;;;5033800;28;20045;-60
2023/06/08 12:07:55;;;;;;;13.55;4.50;;;25.80;55.50;;;;;;5028057;28;20045;-60
2023/06/08 12:10:22;;;;;;;11.77;4.03;;;25.90;55.30;;;;;;5028364;28;20045;-60
2023/06/08 12:12:48;;;;;;;11.45;5.10;;;25.90;55.00;;;;;;5037954;28;20034;-57
2023/06/08 12:15:17;;;;;;;20.33;4.75;;;26.00;54.70;;;;;;5031097;28;20148;-58
2023/06/08 12:17:43;;;;;;;9.48;4.65;;;26.00;54.70;;;;;;5027575;28;20061;-57
2023/06/08 12:20:09;;;;;;;17.10;4.75;;;26.10;54.80;;;;;;5028511;28;20042;-57
2023/06/08 12:22:34;;;;;;;6.93;3.63;;;26.10;54.80;;;;;;5030156;28;20033;-57
2023/06/08 12:25:00;;;;;;;12.93;4.47;;;26.20;54.60;;;;;;5031095;28;20025;-57
2023/06/08 12:27:29;;;;;;;16.50;5.05;;;26.20;54.50;;;;;;5008580;28;20052;-57
2023/06/08 12:29:56;;;;;;;8.73;4.70;;;26.30;54.70;;;;;;5030056;28;20067;-57
2023/06/08 12:32:23;;;;;;;23.83;5.00;;;26.30;54.50;;;;;;5043634;28;21588;-57
2023/06/08 12:34:48;;;;;;;25.25;5.68;;;26.40;54.40;;;;;;5042333;28;20036;-58
2023/06/08 12:37:14;;;;;;;38.70;6.78;;;26.40;54.20;;;;;;5030693;28;20030;-57
2023/06/08 12:39:39;;;;;;;39.92;6.55;;;26.50;54.30;;;;;;5025226;28;20505;-57